sensor_id;sensor_type;location;lat;lon;timestamp;P1;P2;P0
61760;PMS5003;47664;51.660;-0.100;2023-08-20T00:02:02;4;2;
61760;PMS5003;47664;51.660;-0.100;2023-08-20T00:04:30;2;2;
61760;PMS5003;47664;51.660;-0.100;2023-08-20T00:07:02;5;3;
61760;PMS5003;47664;51.660;-0.100;2023-08-20T00:09:30;8;6;
61760;PMS5003;47664;51.660;-0.100;2023-08-20T00:11:57;4;4;
61760;PMS5003;47664;51.660;-0.100;2023-08-20T00:15:02;6;3;
61760;PMS5003;47664;51.660;-0.100;2023-08-20T00:17:30;5;3;
61760;PMS5003;47664;51.660;-0.100;2023-08-20T00:19:58;4;3;
61760;PMS5003;47664;51.660;-0.100;2023-08-20T00:22:26;2;1;
61760;PMS5003;47664;51.660;-0.100;2023-08-20T00:24:54;2;2;
61760;PMS5003;47664;51.660;-0.100;2023-08-20T00:27:21;6;3;
61760;PMS5003;47664;51.660;-0.100;2023-08-20T00:29:48;5;3;
61760;PMS5003;47664;51.660;-0.100;2023-08-20T00:32:15;4;3;
61760;PMS5003;47664;51.660;-0.100;2023-08-20T00:34:42;3;3;
61760;PMS5003;47664;51.660;-0.100;2023-08-20T00:37:10;3;2;
61760;PMS5003;47664;51.660;-0.100;2023-08-20T00:39:37;9;4;
61760;PMS5003;47664;51.660;-0.100;2023-08-20T00:42:05;2;2;
61760;PMS5003;47664;51.660;-0.100;2023-08-20T00:44:33;2;2;
61760;PMS5003;47664;51.660;-0.100;2023-08-20T00:47:00;2;2;
61760;PMS5003;47664;51.660;-0.100;2023-08-20T00:49:28;3;1;
61760;PMS5003;47664;51.660;-0.100;2023-08-20T00:51:55;3;2;
61760;PMS5003;47664;51.660;-0.100;2023-08-20T00:54:23;1;1;
61760;PMS5003;47664;51.660;-0.100;2023-08-20T00:56:52;4;3;
61760;PMS5003;47664;51.660;-0.100;2023-08-20T00:59:20;9;6;
61760;PMS5003;47664;51.660;-0.100;2023-08-20T01:01:47;4;3;
61760;PMS5003;47664;51.660;-0.100;2023-08-20T01:04:14;4;1;
61760;PMS5003;47664;51.660;-0.100;2023-08-20T01:06:44;5;4;
61760;PMS5003;47664;51.660;-0.100;2023-08-20T01:09:22;6;3;
61760;PMS5003;47664;51.660;-0.100;2023-08-20T01:11:59;6;5;
61760;PMS5003;47664;51.660;-0.100;2023-08-20T01:14:29;5;5;
61760;PMS5003;47664;51.660;-0.100;2023-08-20T01:16:56;10;4;
61760;PMS5003;47664;51.660;-0.100;2023-08-20T01:19:23;8;6;
61760;PMS5003;47664;51.660;-0.100;2023-08-20T01:21:55;11;4;
61760;PMS5003;47664;51.660;-0.100;2023-08-20T01:24:38;6;3;
61760;PMS5003;47664;51.660;-0.100;2023-08-20T01:27:19;7;5;
61760;PMS5003;47664;51.660;-0.100;2023-08-20T01:29:57;6;5;
61760;PMS5003;47664;51.660;-0.100;2023-08-20T01:32:26;16;9;
61760;PMS5003;47664;51.660;-0.100;2023-08-20T01:34:53;10;9;
61760;PMS5003;47664;51.660;-0.100;2023-08-20T01:37:21;12;7;
61760;PMS5003;47664;51.660;-0.100;2023-08-20T01:39:48;7;7;
61760;PMS5003;47664;51.660;-0.100;2023-08-20T01:42:16;13;9;
61760;PMS5003;47664;51.660;-0.100;2023-08-20T01:44:44;9;6;
61760;PMS5003;47664;51.660;-0.100;2023-08-20T01:47:11;7;6;
61760;PMS5003;47664;51.660;-0.100;2023-08-20T01:49:38;9;7;
61760;PMS5003;47664;51.660;-0.100;2023-08-20T01:52:05;8;5;
61760;PMS5003;47664;51.660;-0.100;2023-08-20T01:54:32;7;5;
61760;PMS5003;47664;51.660;-0.100;2023-08-20T01:57:00;9;4;
61760;PMS5003;47664;51.660;-0.100;2023-08-20T01:59:27;9;5;
61760;PMS5003;47664;51.660;-0.100;2023-08-20T02:01:53;7;7;
61760;PMS5003;47664;51.660;-0.100;2023-08-20T02:04:20;11;7;
61760;PMS5003;47664;51.660;-0.100;2023-08-20T02:06:48;8;5;
61760;PMS5003;47664;51.660;-0.100;2023-08-20T02:09:15;6;6;
61760;PMS5003;47664;51.660;-0.100;2023-08-20T02:11:42;5;4;
61760;PMS5003;47664;51.660;-0.100;2023-08-20T02:14:09;15;9;
61760;PMS5003;47664;51.660;-0.100;2023-08-20T02:16:36;7;5;
61760;PMS5003;47664;51.660;-0.100;2023-08-20T02:19:03;9;7;
61760;PMS5003;47664;51.660;-0.100;2023-08-20T02:21:30;4;4;
61760;PMS5003;47664;51.660;-0.100;2023-08-20T02:23:57;3;3;
61760;PMS5003;47664;51.660;-0.100;2023-08-20T02:26:24;8;5;
61760;PMS5003;47664;51.660;-0.100;2023-08-20T02:28:52;8;7;
61760;PMS5003;47664;51.660;-0.100;2023-08-20T02:31:19;5;4;
61760;PMS5003;47664;51.660;-0.100;2023-08-20T02:33:46;6;6;
61760;PMS5003;47664;51.660;-0.100;2023-08-20T02:36:13;8;5;
61760;PMS5003;47664;51.660;-0.100;2023-08-20T02:38:40;8;6;
61760;PMS5003;47664;51.660;-0.100;2023-08-20T02:41:07;6;4;
61760;PMS5003;47664;51.660;-0.100;2023-08-20T02:43:34;9;7;
61760;PMS5003;47664;51.660;-0.100;2023-08-20T02:46:02;8;5;
61760;PMS5003;47664;51.660;-0.100;2023-08-20T02:48:29;13;9;
61760;PMS5003;47664;51.660;-0.100;2023-08-20T02:50:56;8;3;
61760;PMS5003;47664;51.660;-0.100;2023-08-20T02:53:23;10;10;
61760;PMS5003;47664;51.660;-0.100;2023-08-20T02:55:51;12;10;
61760;PMS5003;47664;51.660;-0.100;2023-08-20T02:58:18;4;4;
61760;PMS5003;47664;51.660;-0.100;2023-08-20T03:00:46;11;6;
61760;PMS5003;47664;51.660;-0.100;2023-08-20T03:03:13;8;8;
61760;PMS5003;47664;51.660;-0.100;2023-08-20T03:05:41;6;3;
61760;PMS5003;47664;51.660;-0.100;2023-08-20T03:08:08;9;6;
61760;PMS5003;47664;51.660;-0.100;2023-08-20T03:10:35;11;6;
61760;PMS5003;47664;51.660;-0.100;2023-08-20T03:13:02;11;10;
61760;PMS5003;47664;51.660;-0.100;2023-08-20T03:15:30;6;4;
61760;PMS5003;47664;51.660;-0.100;2023-08-20T03:17:58;5;5;
61760;PMS5003;47664;51.660;-0.100;2023-08-20T03:20:25;8;4;
61760;PMS5003;47664;51.660;-0.100;2023-08-20T03:22:53;10;5;
61760;PMS5003;47664;51.660;-0.100;2023-08-20T03:25:19;9;6;
61760;PMS5003;47664;51.660;-0.100;2023-08-20T03:27:47;8;6;
61760;PMS5003;47664;51.660;-0.100;2023-08-20T03:30:15;10;8;
61760;PMS5003;47664;51.660;-0.100;2023-08-20T03:32:42;7;4;
61760;PMS5003;47664;51.660;-0.100;2023-08-20T03:35:09;11;9;
61760;PMS5003;47664;51.660;-0.100;2023-08-20T03:37:36;9;5;
61760;PMS5003;47664;51.660;-0.100;2023-08-20T03:40:03;6;4;
61760;PMS5003;47664;51.660;-0.100;2023-08-20T03:42:31;7;6;
61760;PMS5003;47664;51.660;-0.100;2023-08-20T03:44:58;11;8;
61760;PMS5003;47664;51.660;-0.100;2023-08-20T03:47:25;8;4;
61760;PMS5003;47664;51.660;-0.100;2023-08-20T03:49:52;9;8;
61760;PMS5003;47664;51.660;-0.100;2023-08-20T03:52:19;11;9;
61760;PMS5003;47664;51.660;-0.100;2023-08-20T03:54:47;7;5;
61760;PMS5003;47664;51.660;-0.100;2023-08-20T03:57:14;10;6;
61760;PMS5003;47664;51.660;-0.100;2023-08-20T03:59:41;9;6;
61760;PMS5003;47664;51.660;-0.100;2023-08-20T04:02:08;8;4;
61760;PMS5003;47664;51.660;-0.100;2023-08-20T04:04:35;8;6;
61760;PMS5003;47664;51.660;-0.100;2023-08-20T04:07:02;9;6;
61760;PMS5003;47664;51.660;-0.100;2023-08-20T04:09:29;6;5;
61760;PMS5003;47664;51.660;-0.100;2023-08-20T04:11:58;7;5;
61760;PMS5003;47664;51.660;-0.100;2023-08-20T04:14:25;6;5;
61760;PMS5003;47664;51.660;-0.100;2023-08-20T04:16:53;7;7;
61760;PMS5003;47664;51.660;-0.100;2023-08-20T04:19:20;9;6;
61760;PMS5003;47664;51.660;-0.100;2023-08-20T04:21:47;8;6;
61760;PMS5003;47664;51.660;-0.100;2023-08-20T04:24:14;8;6;
61760;PMS5003;47664;51.660;-0.100;2023-08-20T04:26:41;7;6;
61760;PMS5003;47664;51.660;-0.100;2023-08-20T04:29:08;6;5;
61760;PMS5003;47664;51.660;-0.100;2023-08-20T04:31:36;6;4;
61760;PMS5003;47664;51.660;-0.100;2023-08-20T04:34:03;9;5;
61760;PMS5003;47664;51.660;-0.100;2023-08-20T04:36:30;6;4;
61760;PMS5003;47664;51.660;-0.100;2023-08-20T04:38:57;6;6;
61760;PMS5003;47664;51.660;-0.100;2023-08-20T04:41:24;7;5;
61760;PMS5003;47664;51.660;-0.100;2023-08-20T04:43:52;15;9;
61760;PMS5003;47664;51.660;-0.100;2023-08-20T04:46:19;8;5;
61760;PMS5003;47664;51.660;-0.100;2023-08-20T04:48:46;7;6;
61760;PMS5003;47664;51.660;-0.100;2023-08-20T04:51:13;8;5;
61760;PMS5003;47664;51.660;-0.100;2023-08-20T04:53:40;7;6;
61760;PMS5003;47664;51.660;-0.100;2023-08-20T04:56:07;9;4;
61760;PMS5003;47664;51.660;-0.100;2023-08-20T04:58:34;6;5;
61760;PMS5003;47664;51.660;-0.100;2023-08-20T05:01:01;9;6;
61760;PMS5003;47664;51.660;-0.100;2023-08-20T05:03:28;13;10;
61760;PMS5003;47664;51.660;-0.100;2023-08-20T05:05:55;14;9;
61760;PMS5003;47664;51.660;-0.100;2023-08-20T05:08:22;11;8;
61760;PMS5003;47664;51.660;-0.100;2023-08-20T05:10:49;10;7;
61760;PMS5003;47664;51.660;-0.100;2023-08-20T05:13:17;16;11;
61760;PMS5003;47664;51.660;-0.100;2023-08-20T05:15:46;14;11;
61760;PMS5003;47664;51.660;-0.100;2023-08-20T05:18:12;11;10;
61760;PMS5003;47664;51.660;-0.100;2023-08-20T05:20:39;10;10;
61760;PMS5003;47664;51.660;-0.100;2023-08-20T05:23:06;8;8;
61760;PMS5003;47664;51.660;-0.100;2023-08-20T05:25:34;12;9;
61760;PMS5003;47664;51.660;-0.100;2023-08-20T05:28:01;9;6;
61760;PMS5003;47664;51.660;-0.100;2023-08-20T05:30:29;9;7;
61760;PMS5003;47664;51.660;-0.100;2023-08-20T05:32:55;7;7;
61760;PMS5003;47664;51.660;-0.100;2023-08-20T05:35:22;7;7;
61760;PMS5003;47664;51.660;-0.100;2023-08-20T05:37:50;10;6;
61760;PMS5003;47664;51.660;-0.100;2023-08-20T05:40:17;14;9;
61760;PMS5003;47664;51.660;-0.100;2023-08-20T05:42:45;9;5;
61760;PMS5003;47664;51.660;-0.100;2023-08-20T05:45:12;12;7;
61760;PMS5003;47664;51.660;-0.100;2023-08-20T05:47:39;7;6;
61760;PMS5003;47664;51.660;-0.100;2023-08-20T05:50:06;9;8;
61760;PMS5003;47664;51.660;-0.100;2023-08-20T05:52:33;12;9;
61760;PMS5003;47664;51.660;-0.100;2023-08-20T05:55:01;7;7;
61760;PMS5003;47664;51.660;-0.100;2023-08-20T05:57:28;12;10;
61760;PMS5003;47664;51.660;-0.100;2023-08-20T05:59:55;12;10;
61760;PMS5003;47664;51.660;-0.100;2023-08-20T06:02:22;10;9;
61760;PMS5003;47664;51.660;-0.100;2023-08-20T06:04:49;15;12;
61760;PMS5003;47664;51.660;-0.100;2023-08-20T06:07:16;11;8;
61760;PMS5003;47664;51.660;-0.100;2023-08-20T06:09:43;9;9;
61760;PMS5003;47664;51.660;-0.100;2023-08-20T06:12:11;13;9;
61760;PMS5003;47664;51.660;-0.100;2023-08-20T06:14:38;9;6;
61760;PMS5003;47664;51.660;-0.100;2023-08-20T06:17:05;9;9;
61760;PMS5003;47664;51.660;-0.100;2023-08-20T06:19:32;16;9;
61760;PMS5003;47664;51.660;-0.100;2023-08-20T06:21:59;12;9;
61760;PMS5003;47664;51.660;-0.100;2023-08-20T06:24:26;11;8;
61760;PMS5003;47664;51.660;-0.100;2023-08-20T06:26:53;11;7;
61760;PMS5003;47664;51.660;-0.100;2023-08-20T06:29:20;12;12;
61760;PMS5003;47664;51.660;-0.100;2023-08-20T06:31:48;8;7;
61760;PMS5003;47664;51.660;-0.100;2023-08-20T06:34:15;11;11;
61760;PMS5003;47664;51.660;-0.100;2023-08-20T06:36:41;10;7;
61760;PMS5003;47664;51.660;-0.100;2023-08-20T06:39:09;8;6;
61760;PMS5003;47664;51.660;-0.100;2023-08-20T06:41:36;9;6;
61760;PMS5003;47664;51.660;-0.100;2023-08-20T06:44:03;9;9;
61760;PMS5003;47664;51.660;-0.100;2023-08-20T06:46:31;11;7;
61760;PMS5003;47664;51.660;-0.100;2023-08-20T06:48:58;11;6;
61760;PMS5003;47664;51.660;-0.100;2023-08-20T06:51:25;7;5;
61760;PMS5003;47664;51.660;-0.100;2023-08-20T06:53:52;8;6;
61760;PMS5003;47664;51.660;-0.100;2023-08-20T06:56:19;10;6;
61760;PMS5003;47664;51.660;-0.100;2023-08-20T06:58:46;10;5;
61760;PMS5003;47664;51.660;-0.100;2023-08-20T07:01:14;8;6;
61760;PMS5003;47664;51.660;-0.100;2023-08-20T07:03:42;10;7;
61760;PMS5003;47664;51.660;-0.100;2023-08-20T07:06:10;12;7;
61760;PMS5003;47664;51.660;-0.100;2023-08-20T07:08:37;12;9;
61760;PMS5003;47664;51.660;-0.100;2023-08-20T07:11:05;12;9;
61760;PMS5003;47664;51.660;-0.100;2023-08-20T07:13:32;10;8;
61760;PMS5003;47664;51.660;-0.100;2023-08-20T07:16:00;15;11;
61760;PMS5003;47664;51.660;-0.100;2023-08-20T07:18:27;9;7;
61760;PMS5003;47664;51.660;-0.100;2023-08-20T07:20:54;13;10;
61760;PMS5003;47664;51.660;-0.100;2023-08-20T07:23:22;13;9;
61760;PMS5003;47664;51.660;-0.100;2023-08-20T07:25:49;10;8;
61760;PMS5003;47664;51.660;-0.100;2023-08-20T07:28:17;11;11;
61760;PMS5003;47664;51.660;-0.100;2023-08-20T07:30:46;8;8;
61760;PMS5003;47664;51.660;-0.100;2023-08-20T07:33:13;8;5;
61760;PMS5003;47664;51.660;-0.100;2023-08-20T07:35:40;9;8;
61760;PMS5003;47664;51.660;-0.100;2023-08-20T07:38:07;9;9;
61760;PMS5003;47664;51.660;-0.100;2023-08-20T07:40:35;9;6;
61760;PMS5003;47664;51.660;-0.100;2023-08-20T07:43:03;13;10;
61760;PMS5003;47664;51.660;-0.100;2023-08-20T07:45:30;11;11;
61760;PMS5003;47664;51.660;-0.100;2023-08-20T07:47:57;8;8;
61760;PMS5003;47664;51.660;-0.100;2023-08-20T07:50:24;13;10;
61760;PMS5003;47664;51.660;-0.100;2023-08-20T07:52:51;7;5;
61760;PMS5003;47664;51.660;-0.100;2023-08-20T07:55:18;8;8;
61760;PMS5003;47664;51.660;-0.100;2023-08-20T07:57:45;6;5;
61760;PMS5003;47664;51.660;-0.100;2023-08-20T08:00:13;7;7;
61760;PMS5003;47664;51.660;-0.100;2023-08-20T08:02:41;6;6;
61760;PMS5003;47664;51.660;-0.100;2023-08-20T08:05:08;11;9;
61760;PMS5003;47664;51.660;-0.100;2023-08-20T08:07:35;9;7;
61760;PMS5003;47664;51.660;-0.100;2023-08-20T08:10:02;7;7;
61760;PMS5003;47664;51.660;-0.100;2023-08-20T08:12:29;6;6;
61760;PMS5003;47664;51.660;-0.100;2023-08-20T08:14:56;6;6;
61760;PMS5003;47664;51.660;-0.100;2023-08-20T08:17:23;13;7;
61760;PMS5003;47664;51.660;-0.100;2023-08-20T08:19:51;10;8;
61760;PMS5003;47664;51.660;-0.100;2023-08-20T08:22:18;13;10;
61760;PMS5003;47664;51.660;-0.100;2023-08-20T08:24:46;6;6;
61760;PMS5003;47664;51.660;-0.100;2023-08-20T08:27:13;9;7;
61760;PMS5003;47664;51.660;-0.100;2023-08-20T08:29:39;8;8;
61760;PMS5003;47664;51.660;-0.100;2023-08-20T08:32:07;8;7;
61760;PMS5003;47664;51.660;-0.100;2023-08-20T08:34:34;6;6;
61760;PMS5003;47664;51.660;-0.100;2023-08-20T08:37:00;10;5;
61760;PMS5003;47664;51.660;-0.100;2023-08-20T08:39:27;12;8;
61760;PMS5003;47664;51.660;-0.100;2023-08-20T08:41:55;5;5;
61760;PMS5003;47664;51.660;-0.100;2023-08-20T08:44:27;8;8;
61760;PMS5003;47664;51.660;-0.100;2023-08-20T08:46:54;8;7;
61760;PMS5003;47664;51.660;-0.100;2023-08-20T08:49:22;8;7;
61760;PMS5003;47664;51.660;-0.100;2023-08-20T08:51:49;5;5;
61760;PMS5003;47664;51.660;-0.100;2023-08-20T08:54:18;6;6;
61760;PMS5003;47664;51.660;-0.100;2023-08-20T08:56:47;7;7;
61760;PMS5003;47664;51.660;-0.100;2023-08-20T08:59:14;6;6;
61760;PMS5003;47664;51.660;-0.100;2023-08-20T09:01:41;6;6;
61760;PMS5003;47664;51.660;-0.100;2023-08-20T09:04:08;4;4;
61760;PMS5003;47664;51.660;-0.100;2023-08-20T09:06:44;7;7;
61760;PMS5003;47664;51.660;-0.100;2023-08-20T09:09:12;9;6;
61760;PMS5003;47664;51.660;-0.100;2023-08-20T09:11:39;7;6;
61760;PMS5003;47664;51.660;-0.100;2023-08-20T09:14:06;6;4;
61760;PMS5003;47664;51.660;-0.100;2023-08-20T09:16:33;9;5;
61760;PMS5003;47664;51.660;-0.100;2023-08-20T09:19:00;6;4;
61760;PMS5003;47664;51.660;-0.100;2023-08-20T09:21:28;6;5;
61760;PMS5003;47664;51.660;-0.100;2023-08-20T09:23:55;5;5;
61760;PMS5003;47664;51.660;-0.100;2023-08-20T09:26:23;11;5;
61760;PMS5003;47664;51.660;-0.100;2023-08-20T09:28:53;9;5;
61760;PMS5003;47664;51.660;-0.100;2023-08-20T09:31:36;9;5;
61760;PMS5003;47664;51.660;-0.100;2023-08-20T09:34:04;10;7;
61760;PMS5003;47664;51.660;-0.100;2023-08-20T09:36:32;5;3;
61760;PMS5003;47664;51.660;-0.100;2023-08-20T09:39:00;5;3;
61760;PMS5003;47664;51.660;-0.100;2023-08-20T09:41:28;9;6;
61760;PMS5003;47664;51.660;-0.100;2023-08-20T09:43:56;4;3;
61760;PMS5003;47664;51.660;-0.100;2023-08-20T09:46:24;6;3;
61760;PMS5003;47664;51.660;-0.100;2023-08-20T09:48:53;3;3;
61760;PMS5003;47664;51.660;-0.100;2023-08-20T09:51:24;2;2;
61760;PMS5003;47664;51.660;-0.100;2023-08-20T09:53:55;7;7;
61760;PMS5003;47664;51.660;-0.100;2023-08-20T09:56:27;2;2;
61760;PMS5003;47664;51.660;-0.100;2023-08-20T09:58:57;5;4;
61760;PMS5003;47664;51.660;-0.100;2023-08-20T10:01:24;4;4;
61760;PMS5003;47664;51.660;-0.100;2023-08-20T10:03:51;4;4;
61760;PMS5003;47664;51.660;-0.100;2023-08-20T10:06:19;2;2;
61760;PMS5003;47664;51.660;-0.100;2023-08-20T10:08:47;2;2;
61760;PMS5003;47664;51.660;-0.100;2023-08-20T10:11:14;2;2;
61760;PMS5003;47664;51.660;-0.100;2023-08-20T10:13:42;4;3;
61760;PMS5003;47664;51.660;-0.100;2023-08-20T10:16:11;1;1;
61760;PMS5003;47664;51.660;-0.100;2023-08-20T10:18:38;5;4;
61760;PMS5003;47664;51.660;-0.100;2023-08-20T10:21:06;3;3;
61760;PMS5003;47664;51.660;-0.100;2023-08-20T10:23:33;2;2;
61760;PMS5003;47664;51.660;-0.100;2023-08-20T10:26:06;3;3;
61760;PMS5003;47664;51.660;-0.100;2023-08-20T10:28:34;1;1;
61760;PMS5003;47664;51.660;-0.100;2023-08-20T10:31:04;3;3;
61760;PMS5003;47664;51.660;-0.100;2023-08-20T10:33:33;1;1;
61760;PMS5003;47664;51.660;-0.100;2023-08-20T10:36:09;2;2;
61760;PMS5003;47664;51.660;-0.100;2023-08-20T10:38:39;2;2;
61760;PMS5003;47664;51.660;-0.100;2023-08-20T10:41:06;3;2;
61760;PMS5003;47664;51.660;-0.100;2023-08-20T10:43:34;1;1;
61760;PMS5003;47664;51.660;-0.100;2023-08-20T10:46:04;2;2;
61760;PMS5003;47664;51.660;-0.100;2023-08-20T10:48:33;1;1;
61760;PMS5003;47664;51.660;-0.100;2023-08-20T10:51:07;1;1;
61760;PMS5003;47664;51.660;-0.100;2023-08-20T10:53:36;2;2;
61760;PMS5003;47664;51.660;-0.100;2023-08-20T10:56:07;3;3;
61760;PMS5003;47664;51.660;-0.100;2023-08-20T10:58:37;0;0;
61760;PMS5003;47664;51.660;-0.100;2023-08-20T11:01:22;3;2;
61760;PMS5003;47664;51.660;-0.100;2023-08-20T11:03:50;2;2;
61760;PMS5003;47664;51.660;-0.100;2023-08-20T11:06:18;0;0;
61760;PMS5003;47664;51.660;-0.100;2023-08-20T11:08:45;1;0;
61760;PMS5003;47664;51.660;-0.100;2023-08-20T11:11:12;3;1;
61760;PMS5003;47664;51.660;-0.100;2023-08-20T11:13:39;1;1;
61760;PMS5003;47664;51.660;-0.100;2023-08-20T11:16:07;2;0;
61760;PMS5003;47664;51.660;-0.100;2023-08-20T11:18:34;1;1;
61760;PMS5003;47664;51.660;-0.100;2023-08-20T11:21:02;1;0;
61760;PMS5003;47664;51.660;-0.100;2023-08-20T11:23:30;1;1;
61760;PMS5003;47664;51.660;-0.100;2023-08-20T11:25:58;0;0;
61760;PMS5003;47664;51.660;-0.100;2023-08-20T11:28:25;3;0;
61760;PMS5003;47664;51.660;-0.100;2023-08-20T11:30:53;2;2;
61760;PMS5003;47664;51.660;-0.100;2023-08-20T11:33:21;2;2;
61760;PMS5003;47664;51.660;-0.100;2023-08-20T11:35:48;0;0;
61760;PMS5003;47664;51.660;-0.100;2023-08-20T11:38:16;4;1;
61760;PMS5003;47664;51.660;-0.100;2023-08-20T11:40:44;1;1;
61760;PMS5003;47664;51.660;-0.100;2023-08-20T11:43:10;1;1;
61760;PMS5003;47664;51.660;-0.100;2023-08-20T11:45:45;1;1;
61760;PMS5003;47664;51.660;-0.100;2023-08-20T11:48:14;0;0;
61760;PMS5003;47664;51.660;-0.100;2023-08-20T11:50:42;0;0;
61760;PMS5003;47664;51.660;-0.100;2023-08-20T11:53:10;1;1;
61760;PMS5003;47664;51.660;-0.100;2023-08-20T11:55:39;5;2;
61760;PMS5003;47664;51.660;-0.100;2023-08-20T11:58:09;3;2;
61760;PMS5003;47664;51.660;-0.100;2023-08-20T12:00:38;1;0;
61760;PMS5003;47664;51.660;-0.100;2023-08-20T12:03:05;1;1;
61760;PMS5003;47664;51.660;-0.100;2023-08-20T12:05:33;2;0;
61760;PMS5003;47664;51.660;-0.100;2023-08-20T12:08:00;1;1;
61760;PMS5003;47664;51.660;-0.100;2023-08-20T12:10:29;2;1;
61760;PMS5003;47664;51.660;-0.100;2023-08-20T12:12:58;4;2;
61760;PMS5003;47664;51.660;-0.100;2023-08-20T12:15:25;0;0;
61760;PMS5003;47664;51.660;-0.100;2023-08-20T12:17:56;1;1;
61760;PMS5003;47664;51.660;-0.100;2023-08-20T12:20:26;2;0;
61760;PMS5003;47664;51.660;-0.100;2023-08-20T12:22:55;1;1;
61760;PMS5003;47664;51.660;-0.100;2023-08-20T12:25:24;1;0;
61760;PMS5003;47664;51.660;-0.100;2023-08-20T12:27:51;3;1;
61760;PMS5003;47664;51.660;-0.100;2023-08-20T12:30:18;0;0;
61760;PMS5003;47664;51.660;-0.100;2023-08-20T12:32:45;0;0;
61760;PMS5003;47664;51.660;-0.100;2023-08-20T12:35:12;2;1;
61760;PMS5003;47664;51.660;-0.100;2023-08-20T12:37:39;1;0;
61760;PMS5003;47664;51.660;-0.100;2023-08-20T12:40:06;2;1;
61760;PMS5003;47664;51.660;-0.100;2023-08-20T12:42:34;1;1;
61760;PMS5003;47664;51.660;-0.100;2023-08-20T12:45:01;0;0;
61760;PMS5003;47664;51.660;-0.100;2023-08-20T12:47:29;1;0;
61760;PMS5003;47664;51.660;-0.100;2023-08-20T12:49:55;2;0;
61760;PMS5003;47664;51.660;-0.100;2023-08-20T12:52:22;0;0;
61760;PMS5003;47664;51.660;-0.100;2023-08-20T12:54:50;2;0;
61760;PMS5003;47664;51.660;-0.100;2023-08-20T12:57:17;0;0;
61760;PMS5003;47664;51.660;-0.100;2023-08-20T12:59:44;1;1;
61760;PMS5003;47664;51.660;-0.100;2023-08-20T13:02:11;2;1;
61760;PMS5003;47664;51.660;-0.100;2023-08-20T13:04:38;2;1;
61760;PMS5003;47664;51.660;-0.100;2023-08-20T13:07:06;4;3;
61760;PMS5003;47664;51.660;-0.100;2023-08-20T13:09:34;1;1;
61760;PMS5003;47664;51.660;-0.100;2023-08-20T13:12:02;2;2;
61760;PMS5003;47664;51.660;-0.100;2023-08-20T13:14:31;0;0;
61760;PMS5003;47664;51.660;-0.100;2023-08-20T13:16:59;0;0;
61760;PMS5003;47664;51.660;-0.100;2023-08-20T13:19:27;2;2;
61760;PMS5003;47664;51.660;-0.100;2023-08-20T13:21:53;1;1;
61760;PMS5003;47664;51.660;-0.100;2023-08-20T13:24:20;0;0;
61760;PMS5003;47664;51.660;-0.100;2023-08-20T13:26:47;2;2;
61760;PMS5003;47664;51.660;-0.100;2023-08-20T13:29:14;1;1;
61760;PMS5003;47664;51.660;-0.100;2023-08-20T13:31:41;3;3;
61760;PMS5003;47664;51.660;-0.100;2023-08-20T13:34:07;1;1;
61760;PMS5003;47664;51.660;-0.100;2023-08-20T13:36:34;2;2;
61760;PMS5003;47664;51.660;-0.100;2023-08-20T13:39:01;1;1;
61760;PMS5003;47664;51.660;-0.100;2023-08-20T13:41:28;2;1;
61760;PMS5003;47664;51.660;-0.100;2023-08-20T13:43:55;2;2;
61760;PMS5003;47664;51.660;-0.100;2023-08-20T13:46:22;3;1;
61760;PMS5003;47664;51.660;-0.100;2023-08-20T13:48:49;1;1;
61760;PMS5003;47664;51.660;-0.100;2023-08-20T13:51:17;3;2;
61760;PMS5003;47664;51.660;-0.100;2023-08-20T13:53:44;3;1;
61760;PMS5003;47664;51.660;-0.100;2023-08-20T13:56:11;0;0;
61760;PMS5003;47664;51.660;-0.100;2023-08-20T13:58:38;1;0;
61760;PMS5003;47664;51.660;-0.100;2023-08-20T14:01:05;3;2;
61760;PMS5003;47664;51.660;-0.100;2023-08-20T14:03:31;2;2;
61760;PMS5003;47664;51.660;-0.100;2023-08-20T14:05:58;0;0;
61760;PMS5003;47664;51.660;-0.100;2023-08-20T14:08:25;2;2;
61760;PMS5003;47664;51.660;-0.100;2023-08-20T14:10:52;5;3;
61760;PMS5003;47664;51.660;-0.100;2023-08-20T14:13:19;7;4;
61760;PMS5003;47664;51.660;-0.100;2023-08-20T14:15:46;1;1;
61760;PMS5003;47664;51.660;-0.100;2023-08-20T14:18:13;1;1;
61760;PMS5003;47664;51.660;-0.100;2023-08-20T14:20:40;0;0;
61760;PMS5003;47664;51.660;-0.100;2023-08-20T14:23:07;4;1;
61760;PMS5003;47664;51.660;-0.100;2023-08-20T14:25:33;1;1;
61760;PMS5003;47664;51.660;-0.100;2023-08-20T14:28:00;1;1;
61760;PMS5003;47664;51.660;-0.100;2023-08-20T14:30:28;1;1;
61760;PMS5003;47664;51.660;-0.100;2023-08-20T14:32:55;1;1;
61760;PMS5003;47664;51.660;-0.100;2023-08-20T14:35:22;2;2;
61760;PMS5003;47664;51.660;-0.100;2023-08-20T14:37:52;2;2;
61760;PMS5003;47664;51.660;-0.100;2023-08-20T14:40:20;1;1;
61760;PMS5003;47664;51.660;-0.100;2023-08-20T14:42:48;2;2;
61760;PMS5003;47664;51.660;-0.100;2023-08-20T14:45:15;4;4;
61760;PMS5003;47664;51.660;-0.100;2023-08-20T14:47:42;6;5;
61760;PMS5003;47664;51.660;-0.100;2023-08-20T14:50:09;3;3;
61760;PMS5003;47664;51.660;-0.100;2023-08-20T14:52:36;3;3;
61760;PMS5003;47664;51.660;-0.100;2023-08-20T14:55:03;2;2;
61760;PMS5003;47664;51.660;-0.100;2023-08-20T14:57:32;2;2;
61760;PMS5003;47664;51.660;-0.100;2023-08-20T14:59:58;1;1;
61760;PMS5003;47664;51.660;-0.100;2023-08-20T15:02:25;1;1;
61760;PMS5003;47664;51.660;-0.100;2023-08-20T15:04:52;2;2;
61760;PMS5003;47664;51.660;-0.100;2023-08-20T15:07:19;2;2;
61760;PMS5003;47664;51.660;-0.100;2023-08-20T15:09:47;2;2;
61760;PMS5003;47664;51.660;-0.100;2023-08-20T15:12:13;1;1;
61760;PMS5003;47664;51.660;-0.100;2023-08-20T15:14:40;1;1;
61760;PMS5003;47664;51.660;-0.100;2023-08-20T15:17:08;5;2;
61760;PMS5003;47664;51.660;-0.100;2023-08-20T15:19:35;4;2;
61760;PMS5003;47664;51.660;-0.100;2023-08-20T15:22:02;2;2;
61760;PMS5003;47664;51.660;-0.100;2023-08-20T15:24:30;2;2;
61760;PMS5003;47664;51.660;-0.100;2023-08-20T15:26:58;1;1;
61760;PMS5003;47664;51.660;-0.100;2023-08-20T15:29:25;2;2;
61760;PMS5003;47664;51.660;-0.100;2023-08-20T15:31:51;4;2;
61760;PMS5003;47664;51.660;-0.100;2023-08-20T15:34:18;0;0;
61760;PMS5003;47664;51.660;-0.100;2023-08-20T15:36:46;1;1;
61760;PMS5003;47664;51.660;-0.100;2023-08-20T15:39:13;1;1;
61760;PMS5003;47664;51.660;-0.100;2023-08-20T15:41:39;1;1;
61760;PMS5003;47664;51.660;-0.100;2023-08-20T15:44:06;2;2;
61760;PMS5003;47664;51.660;-0.100;2023-08-20T15:46:33;1;1;
61760;PMS5003;47664;51.660;-0.100;2023-08-20T15:49:00;2;0;
61760;PMS5003;47664;51.660;-0.100;2023-08-20T15:51:27;2;2;
61760;PMS5003;47664;51.660;-0.100;2023-08-20T15:53:54;1;1;
61760;PMS5003;47664;51.660;-0.100;2023-08-20T15:56:21;2;2;
61760;PMS5003;47664;51.660;-0.100;2023-08-20T15:58:48;1;1;
61760;PMS5003;47664;51.660;-0.100;2023-08-20T16:01:15;2;1;
61760;PMS5003;47664;51.660;-0.100;2023-08-20T16:03:42;1;1;
61760;PMS5003;47664;51.660;-0.100;2023-08-20T16:06:08;3;2;
61760;PMS5003;47664;51.660;-0.100;2023-08-20T16:08:35;2;2;
61760;PMS5003;47664;51.660;-0.100;2023-08-20T16:11:03;1;1;
61760;PMS5003;47664;51.660;-0.100;2023-08-20T16:13:30;1;1;
61760;PMS5003;47664;51.660;-0.100;2023-08-20T16:15:57;3;3;
61760;PMS5003;47664;51.660;-0.100;2023-08-20T16:18:24;1;1;
61760;PMS5003;47664;51.660;-0.100;2023-08-20T16:20:51;1;1;
61760;PMS5003;47664;51.660;-0.100;2023-08-20T16:23:18;1;1;
61760;PMS5003;47664;51.660;-0.100;2023-08-20T16:25:46;1;1;
61760;PMS5003;47664;51.660;-0.100;2023-08-20T16:28:13;1;1;
61760;PMS5003;47664;51.660;-0.100;2023-08-20T16:30:40;2;2;
61760;PMS5003;47664;51.660;-0.100;2023-08-20T16:33:07;2;0;
61760;PMS5003;47664;51.660;-0.100;2023-08-20T16:35:35;1;1;